Time;durP1;ratioP1;P1;durP2;ratioP2;P2;SDS_P1;SDS_P2;PMS_P1;PMS_P2;Temp;Humidity;BMP_temperature;BMP_pressure;BME280_temperature;BME280_humidity;BME280_pressure;Samples;Min_cycle;Max_cycle;Signal;HPM_P1;HPM_P2
2024/04/10 00:01:57;;;;;;;;;;;;;;;;;;5409245;26;19929;-63
2024/04/10 00:04:22;;;;;;;;;;;;;;;;;;5408213;26;19929;-63
2024/04/10 00:06:47;;;;;;;;;;;;;;;;;;5409070;26;19933;-63
2024/04/10 00:09:12;;;;;;;;;;;;;;;;;;5408738;26;19953;-63
2024/04/10 00:11:37;;;;;;;;;;;;;;;;;;5401723;26;20503;-63
2024/04/10 00:14:02;;;;;;;;;;;;;;;;;;5406568;26;20255;-62
2024/04/10 00:16:27;;;;;;;;;;;;;;;;;;5407929;26;20347;-63
2024/04/10 00:18:53;;;;;;;;;;;;;;;;;;5418999;26;20007;-63
2024/04/10 00:21:18;;;;;;;;;;;;;;;;;;5408122;26;19930;-63
2024/04/10 00:23:45;;;;;;;;;;;;;;;;;;5408598;26;19937;-63
2024/04/10 00:26:10;;;;;;;;;;;;;;;;;;5407797;26;19935;-65
2024/04/10 00:28:35;;;;;;;;;;;;;;;;;;5415790;26;19929;-63
2024/04/10 00:31:00;;;;;;;;;;;;;;;;;;5408458;26;20330;-63
2024/04/10 00:33:25;;;;;;;;;;;;;;;;;;5407544;26;20543;-63
2024/04/10 00:35:50;;;;;;;;;;;;;;;;;;5419609;26;19940;-63
2024/04/10 00:38:15;;;;;;;;;;;;;;;;;;5429255;26;19930;-63
2024/04/10 00:40:40;;;;;;;;;;;;;;;;;;5409047;26;19929;-63
2024/04/10 00:43:06;;;;;;;;;;;;;;;;;;5410021;26;20381;-63
2024/04/10 00:45:31;;;;;;;;;;;;;;;;;;5408772;26;19930;-63
2024/04/10 00:47:56;;;;;;;;;;;;;;;;;;5408616;26;20362;-63
2024/04/10 00:50:21;;;;;;;;;;;;;;;;;;5407512;26;19929;-62
2024/04/10 00:52:46;;;;;;;;;;;;;;;;;;5408072;26;19936;-62
2024/04/10 00:55:11;;;;;;;;;;;;;;;;;;5407257;26;19936;-62
2024/04/10 00:57:37;;;;;;;;;;;;;;;;;;5417516;26;19987;-63
2024/04/10 01:00:02;;;;;;;;;;;;;;;;;;5411090;26;19929;-63
2024/04/10 01:02:28;;;;;;;;;;;;;;;;;;5407511;26;19940;-63
2024/04/10 01:04:53;;;;;;;;;;;;;;;;;;5407524;26;20354;-63
2024/04/10 01:07:18;;;;;;;;;;;;;;;;;;5417330;26;19997;-63
2024/04/10 01:09:43;;;;;;;;;;;;;;;;;;5408247;26;20052;-63
2024/04/10 01:12:08;;;;;;;;;;;;;;;;;;5407463;26;19936;-63
2024/04/10 01:14:33;;;;;;;;;;;;;;;;;;5406966;26;20346;-63
2024/04/10 01:16:58;;;;;;;;;;;;;;;;;;5412775;26;19953;-63
2024/04/10 01:19:23;;;;;;;;;;;;;;;;;;5424407;26;19929;-63
2024/04/10 01:21:48;;;;;;;;;;;;;;;;;;5408056;26;19963;-63
2024/04/10 01:24:13;;;;;;;;;;;;;;;;;;5407108;26;19928;-63
2024/04/10 01:26:38;;;;;;;;;;;;;;;;;;5407693;26;20339;-67
2024/04/10 01:29:04;;;;;;;;;;;;;;;;;;5416905;26;20476;-64
2024/04/10 01:31:30;;;;;;;;;;;;;;;;;;5407277;26;19937;-66
2024/04/10 01:33:55;;;;;;;;;;;;;;;;;;5408318;26;19936;-66
2024/04/10 01:36:21;;;;;;;;;;;;;;;;;;5406467;26;20278;-70
2024/04/10 01:38:46;;;;;;;;;;;;;;;;;;5417966;26;19948;-66
2024/04/10 01:41:11;;;;;;;;;;;;;;;;;;5407857;26;20443;-64
2024/04/10 01:43:36;;;;;;;;;;;;;;;;;;5411571;26;19935;-66
2024/04/10 01:46:01;;;;;;;;;;;;;;;;;;5405918;26;19940;-64
2024/04/10 01:48:26;;;;;;;;;;;;;;;;;;5416151;26;19929;-67
2024/04/10 01:50:51;;;;;;;;;;;;;;;;;;5407687;26;19957;-66
2024/04/10 01:53:16;;;;;;;;;;;;;;;;;;5407531;26;19940;-65
2024/04/10 01:55:41;;;;;;;;;;;;;;;;;;5406670;26;20661;-66
2024/04/10 01:58:06;;;;;;;;;;;;;;;;;;5416678;26;19928;-68
2024/04/10 02:00:32;;;;;;;;;;;;;;;;;;5405521;26;19962;-65
2024/04/10 02:02:57;;;;;;;;;;;;;;;;;;5407363;26;20358;-65
2024/04/10 02:05:22;;;;;;;;;;;;;;;;;;5405186;26;19965;-69
2024/04/10 02:07:47;;;;;;;;;;;;;;;;;;5416848;26;19940;-65
2024/04/10 02:10:13;;;;;;;;;;;;;;;;;;5406649;26;20046;-66
2024/04/10 02:12:38;;;;;;;;;;;;;;;;;;5407115;26;19932;-66
2024/04/10 02:15:03;;;;;;;;;;;;;;;;;;5409568;26;19929;-67
2024/04/10 02:17:28;;;;;;;;;;;;;;;;;;5416115;26;19940;-67
2024/04/10 02:19:54;;;;;;;;;;;;;;;;;;5406405;26;19963;-65
2024/04/10 02:22:19;;;;;;;;;;;;;;;;;;5406818;26;20258;-66
2024/04/10 02:24:44;;;;;;;;;;;;;;;;;;5406644;26;19962;-66
2024/04/10 02:27:09;;;;;;;;;;;;;;;;;;5412462;26;19929;-65
2024/04/10 02:29:34;;;;;;;;;;;;;;;;;;5410701;26;19980;-65
2024/04/10 02:32:00;;;;;;;;;;;;;;;;;;5406171;26;19929;-67
2024/04/10 02:34:25;;;;;;;;;;;;;;;;;;5404485;26;19941;-66
2024/04/10 02:36:50;;;;;;;;;;;;;;;;;;5406375;26;19956;-65
2024/04/10 02:39:15;;;;;;;;;;;;;;;;;;5425195;26;20344;-65
2024/04/10 02:41:40;;;;;;;;;;;;;;;;;;5404954;26;19940;-64
2024/04/10 02:44:05;;;;;;;;;;;;;;;;;;5412928;26;19929;-66
2024/04/10 02:46:30;;;;;;;;;;;;;;;;;;5406323;26;19928;-67
2024/04/10 02:48:55;;;;;;;;;;;;;;;;;;5392373;26;20377;-66
2024/04/10 02:51:20;;;;;;;;;;;;;;;;;;5404891;26;20430;-65
2024/04/10 02:53:45;;;;;;;;;;;;;;;;;;5404477;26;19929;-65
2024/04/10 02:56:10;;;;;;;;;;;;;;;;;;5404866;26;19941;-65
2024/04/10 02:58:36;;;;;;;;;;;;;;;;;;5403491;26;19940;-67
2024/04/10 03:01:01;;;;;;;;;;;;;;;;;;5404626;26;19940;-65
2024/04/10 03:03:26;;;;;;;;;;;;;;;;;;5404426;26;20387;-66
2024/04/10 03:05:51;;;;;;;;;;;;;;;;;;5405791;26;19936;-64
2024/04/10 03:08:16;;;;;;;;;;;;;;;;;;5405793;26;19949;-66
2024/04/10 03:10:41;;;;;;;;;;;;;;;;;;5405161;26;19998;-65
2024/04/10 03:13:10;;;;;;;;;;;;;;;;;;5405392;26;20378;-67
2024/04/10 03:15:35;;;;;;;;;;;;;;;;;;5405066;26;19929;-65
2024/04/10 03:18:00;;;;;;;;;;;;;;;;;;5414752;26;19932;-66
2024/04/10 03:20:26;;;;;;;;;;;;;;;;;;5408035;26;19929;-67
2024/04/10 03:22:51;;;;;;;;;;;;;;;;;;5408694;26;20415;-66
2024/04/10 03:25:16;;;;;;;;;;;;;;;;;;5409960;26;19945;-66
2024/04/10 03:27:42;;;;;;;;;;;;;;;;;;5417046;26;19957;-65
2024/04/10 03:30:07;;;;;;;;;;;;;;;;;;5408253;26;19933;-65
2024/04/10 03:32:32;;;;;;;;;;;;;;;;;;5408869;26;20266;-64
2024/04/10 03:34:57;;;;;;;;;;;;;;;;;;5406915;26;19933;-65
2024/04/10 03:37:22;;;;;;;;;;;;;;;;;;5414578;26;19929;-65
2024/04/10 03:39:47;;;;;;;;;;;;;;;;;;5410543;26;19929;-65
2024/04/10 03:42:12;;;;;;;;;;;;;;;;;;5406590;26;19929;-67
2024/04/10 03:44:38;;;;;;;;;;;;;;;;;;5415715;26;20293;-65
2024/04/10 03:47:03;;;;;;;;;;;;;;;;;;5409262;26;19929;-65
2024/04/10 03:49:28;;;;;;;;;;;;;;;;;;5415342;26;20420;-65
2024/04/10 03:51:53;;;;;;;;;;;;;;;;;;5409040;26;19929;-65
2024/04/10 03:54:18;;;;;;;;;;;;;;;;;;5394665;26;20294;-68
2024/04/10 03:56:43;;;;;;;;;;;;;;;;;;5407055;26;20431;-65
2024/04/10 03:59:09;;;;;;;;;;;;;;;;;;5417063;26;19929;-65
2024/04/10 04:01:34;;;;;;;;;;;;;;;;;;5407720;26;20362;-64
2024/04/10 04:04:03;;;;;;;;;;;;;;;;;;5408749;26;19929;-64
2024/04/10 04:06:28;;;;;;;;;;;;;;;;;;5408465;26;19929;-65
2024/04/10 04:08:53;;;;;;;;;;;;;;;;;;5408210;26;19936;-66
2024/04/10 04:11:18;;;;;;;;;;;;;;;;;;5409541;26;19936;-65
2024/04/10 04:13:43;;;;;;;;;;;;;;;;;;5405689;26;19929;-65
2024/04/10 04:16:08;;;;;;;;;;;;;;;;;;5408162;26;19960;-65
2024/04/10 04:18:34;;;;;;;;;;;;;;;;;;5417560;26;19929;-65
2024/04/10 04:20:59;;;;;;;;;;;;;;;;;;5408330;26;20269;-64
2024/04/10 04:23:24;;;;;;;;;;;;;;;;;;5409279;26;20325;-66
2024/04/10 04:25:50;;;;;;;;;;;;;;;;;;5409031;26;19929;-64
2024/04/10 04:28:15;;;;;;;;;;;;;;;;;;5416585;26;19956;-64
2024/04/10 04:30:40;;;;;;;;;;;;;;;;;;5407070;26;19963;-65
2024/04/10 04:33:05;;;;;;;;;;;;;;;;;;5410988;26;19929;-64
2024/04/10 04:35:30;;;;;;;;;;;;;;;;;;5408632;26;19940;-65
2024/04/10 04:37:58;;;;;;;;;;;;;;;;;;5412390;26;20373;-65
2024/04/10 04:40:24;;;;;;;;;;;;;;;;;;5408097;26;19944;-65
2024/04/10 04:42:49;;;;;;;;;;;;;;;;;;5407819;26;20553;-65
2024/04/10 04:45:14;;;;;;;;;;;;;;;;;;5416102;26;19997;-65
2024/04/10 04:47:39;;;;;;;;;;;;;;;;;;5415034;26;19952;-66
2024/04/10 04:50:08;;;;;;;;;;;;;;;;;;5406236;26;20332;-68
2024/04/10 04:52:33;;;;;;;;;;;;;;;;;;5422691;26;19928;-65
2024/04/10 04:54:58;;;;;;;;;;;;;;;;;;5407762;26;19936;-65
2024/04/10 04:57:23;;;;;;;;;;;;;;;;;;5413134;26;20475;-66
2024/04/10 04:59:48;;;;;;;;;;;;;;;;;;5410687;26;19933;-69
2024/04/10 05:02:13;;;;;;;;;;;;;;;;;;5406062;26;19932;-66
2024/04/10 05:04:54;;;;;;;;;;;;;;;;;;5413738;26;20262;-67
2024/04/10 05:07:19;;;;;;;;;;;;;;;;;;5412283;26;19940;-66
2024/04/10 05:09:45;;;;;;;;;;;;;;;;;;5410621;26;19936;-66
2024/04/10 05:12:11;;;;;;;;;;;;;;;;;;5407140;26;20017;-67
2024/04/10 05:14:36;;;;;;;;;;;;;;;;;;5407192;26;20598;-68
2024/04/10 05:17:01;;;;;;;;;;;;;;;;;;5410382;26;19975;-68
2024/04/10 05:19:26;;;;;;;;;;;;;;;;;;5416348;26;19935;-68
2024/04/10 05:21:51;;;;;;;;;;;;;;;;;;5408161;26;19929;-66
2024/04/10 05:24:16;;;;;;;;;;;;;;;;;;5407159;26;19936;-67
2024/04/10 05:26:41;;;;;;;;;;;;;;;;;;5406599;26;20071;-67
2024/04/10 05:29:07;;;;;;;;;;;;;;;;;;5415231;26;19940;-67
2024/04/10 05:31:32;;;;;;;;;;;;;;;;;;5407516;26;20023;-66
2024/04/10 05:33:57;;;;;;;;;;;;;;;;;;5407661;26;19941;-66
2024/04/10 05:36:22;;;;;;;;;;;;;;;;;;5407057;26;20309;-67
2024/04/10 05:38:49;;;;;;;;;;;;;;;;;;5414599;26;19972;-67
2024/04/10 05:41:14;;;;;;;;;;;;;;;;;;5407418;26;19936;-67
2024/04/10 05:43:39;;;;;;;;;;;;;;;;;;5416465;26;19956;-66
2024/04/10 05:46:05;;;;;;;;;;;;;;;;;;5406337;26;19948;-67
2024/04/10 05:48:30;;;;;;;;;;;;;;;;;;5414455;26;19929;-66
2024/04/10 05:50:55;;;;;;;;;;;;;;;;;;5407780;26;20495;-66
2024/04/10 05:53:20;;;;;;;;;;;;;;;;;;5415032;26;20373;-68
2024/04/10 05:55:45;;;;;;;;;;;;;;;;;;5408612;26;19968;-67
2024/04/10 05:58:10;;;;;;;;;;;;;;;;;;5408306;26;20066;-68
2024/04/10 06:00:36;;;;;;;;;;;;;;;;;;5404499;26;21576;-66
2024/04/10 06:03:02;;;;;;;;;;;;;;;;;;5404371;26;19929;-65
2024/04/10 06:05:27;;;;;;;;;;;;;;;;;;5403850;26;20391;-66
2024/04/10 06:07:52;;;;;;;;;;;;;;;;;;5409467;26;19929;-64
2024/04/10 06:10:20;;;;;;;;;;;;;;;;;;5403589;26;20193;-64
2024/04/10 06:12:45;;;;;;;;;;;;;;;;;;5409593;26;19948;-66
2024/04/10 06:15:10;;;;;;;;;;;;;;;;;;5405544;26;19929;-66
2024/04/10 06:17:36;;;;;;;;;;;;;;;;;;5411356;26;19935;-64
2024/04/10 06:20:05;;;;;;;;;;;;;;;;;;5404647;26;20066;-68
2024/04/10 06:22:30;;;;;;;;;;;;;;;;;;5403878;26;20254;-65
2024/04/10 06:24:55;;;;;;;;;;;;;;;;;;5404424;26;20445;-68
2024/04/10 06:27:20;;;;;;;;;;;;;;;;;;5408525;26;19928;-67
2024/04/10 06:29:45;;;;;;;;;;;;;;;;;;5408634;26;19929;-66
2024/04/10 06:32:10;;;;;;;;;;;;;;;;;;5410773;26;20389;-66
2024/04/10 06:34:35;;;;;;;;;;;;;;;;;;5406924;26;19936;-67
2024/04/10 06:37:01;;;;;;;;;;;;;;;;;;5405512;26;19929;-65
2024/04/10 06:39:27;;;;;;;;;;;;;;;;;;5413422;26;19929;-67
2024/04/10 06:41:52;;;;;;;;;;;;;;;;;;5405961;26;19936;-67
2024/04/10 06:44:17;;;;;;;;;;;;;;;;;;5406261;26;20269;-66
2024/04/10 06:46:42;;;;;;;;;;;;;;;;;;5420535;26;19929;-66
2024/04/10 06:49:09;;;;;;;;;;;;;;;;;;5413547;26;19937;-66
2024/04/10 06:51:34;;;;;;;;;;;;;;;;;;5406703;26;19936;-65
2024/04/10 06:53:59;;;;;;;;;;;;;;;;;;5409321;26;19933;-64
2024/04/10 06:56:25;;;;;;;;;;;;;;;;;;5412041;26;19929;-65
2024/04/10 06:58:50;;;;;;;;;;;;;;;;;;5409308;26;19929;-66
2024/04/10 07:01:15;;;;;;;;;;;;;;;;;;5410512;26;20488;-65
2024/04/10 07:03:41;;;;;;;;;;;;;;;;;;5424711;26;19929;-64
2024/04/10 07:06:06;;;;;;;;;;;;;;;;;;5430562;26;19935;-65
2024/04/10 07:08:31;;;;;;;;;;;;;;;;;;5423200;26;19928;-63
2024/04/10 07:10:56;;;;;;;;;;;;;;;;;;5414560;26;19936;-65
2024/04/10 07:13:21;;;;;;;;;;;;;;;;;;5417059;26;19936;-66
2024/04/10 07:15:47;;;;;;;;;;;;;;;;;;5433132;26;19929;-64
2024/04/10 07:18:13;;;;;;;;;;;;;;;;;;5443903;26;20002;-65
2024/04/10 07:20:38;;;;;;;;;;;;;;;;;;5436243;26;19940;-65
2024/04/10 07:23:06;;;;;;;;;;;;;;;;;;5427756;26;19998;-64
2024/04/10 07:25:31;;;;;;;;;;;;;;;;;;5438391;26;20231;-65
2024/04/10 07:27:57;;;;;;;;;;;;;;;;;;5444077;26;20348;-65
2024/04/10 07:30:22;;;;;;;;;;;;;;;;;;5421151;26;19937;-64
2024/04/10 07:32:47;;;;;;;;;;;;;;;;;;5438376;26;19944;-65
2024/04/10 07:35:12;;;;;;;;;;;;;;;;;;5440388;26;19936;-65
2024/04/10 07:37:38;;;;;;;;;;;;;;;;;;5451082;26;19940;-65
2024/04/10 07:40:03;;;;;;;;;;;;;;;17.80;nan;101685.38;5442614;26;19997;-65
2024/04/10 07:42:28;;;;;;;;;;;;;;;18.11;nan;101694.47;5433776;26;20354;-65
2024/04/10 07:44:53;;;;;;;;;;;;;;;18.29;nan;101689.72;5414666;26;20263;-66
2024/04/10 07:47:19;;;;;;;;;;;;;;;18.14;nan;101697.66;5428651;26;19935;-65
2024/04/10 07:49:46;;;;;;;;;;;;;;;18.13;nan;101695.13;5422451;26;19935;-64
2024/04/10 07:52:11;;;;;;;;;;;;;;;18.39;nan;101697.53;5397730;26;19991;-65
2024/04/10 07:54:36;;;;;;;;;;;;;;;18.65;nan;101697.25;5430413;26;19929;-66
2024/04/10 07:57:03;;;;;;;;;;;;;;;18.59;nan;101704.16;5448753;26;19928;-65
2024/04/10 07:59:28;;;;;;;;;;;;;;;19.03;nan;101708.09;5427358;26;20446;-66
2024/04/10 08:01:53;;;;;;;;;;;;;;;19.39;nan;101707.47;5441156;26;19928;-64
2024/04/10 08:04:19;;;;;;;;;;;;;;;19.24;nan;101708.25;5412884;26;19928;-67
2024/04/10 08:06:44;;;;;;;;;;;;;;;18.89;nan;101713.19;5419517;26;19929;-66
2024/04/10 08:09:09;;;;;;;;;;;;;;;18.36;nan;101712.13;5412219;26;19929;-68
2024/04/10 08:11:34;;;;;;;;;;;;;;;18.33;nan;101719.66;5422749;26;20327;-65
2024/04/10 08:14:00;;;;;;;;;;;;;;;18.34;nan;101716.81;5414014;26;19929;-64
2024/04/10 08:16:26;;;;;;;;;;;;;;;18.83;nan;101716.59;5427753;26;19928;-65
2024/04/10 08:18:51;;;;;;;;;;;;;;;;;;5428438;26;19998;-67
2024/04/10 08:21:16;;;;;;;;;;;;;;;;;;5427576;26;19928;-65
2024/04/10 08:23:43;;;;;;;;;;;;;;;19.87;nan;101647.13;5435385;26;19928;-65
2024/04/10 08:26:08;;;;;;;;;;;;;;;;;;5442452;26;20089;-65
2024/04/10 08:28:34;;;;;;;;;;;;;;;;;;5440125;26;19935;-65
2024/04/10 08:30:59;;;;;;;;;;;;;;;;;;5432418;26;20020;-65
2024/04/10 08:33:27;;;;;;;;;;;;;;;;;;5443033;26;19944;-65
2024/04/10 08:35:52;;;;;;;;;;;;;;;;;;5431419;26;19936;-66
2024/04/10 08:38:17;;;;;;;;;;;;;;;;;;5435162;26;19929;-67
2024/04/10 08:40:43;;;;;;;;;;;;;;;;;;5406091;26;19973;-66
2024/04/10 08:43:08;;;;;;;;;;;;;;;;;;5426791;26;19929;-67
2024/04/10 08:45:33;;;;;;;;;;;;;;;;;;5442519;26;20338;-65
2024/04/10 08:47:59;;;;;;;;;;;;;;;;;;5424306;26;20339;-64
2024/04/10 08:50:24;;;;;;;;;;;;;;;;;;5413558;26;19944;-65
2024/04/10 08:52:49;;;;;;;;;;;;;;;;;;5420786;26;20294;-67
2024/04/10 08:55:15;;;;;;;;;;;;;;;;;;5412547;26;20401;-65
2024/04/10 08:57:40;;;;;;;;;;;;;;;;;;5426309;26;19929;-65
2024/04/10 09:00:05;;;;;;;;;;;;;;;;;;5438917;26;19929;-65
2024/04/10 09:02:30;;;;;;;;;;;;;;;;;;5442268;26;19928;-65
2024/04/10 09:04:56;;;;;;;;;;;;;;;;;;5437149;26;19988;-65
2024/04/10 09:07:21;;;;;;;;;;;;;;;;;;5419572;26;20079;-64
2024/04/10 09:09:49;;;;;;;;;;;;;;;;;;5420806;26;20696;-65
2024/04/10 09:12:14;;;;;;;;;;;;;;;;;;5437099;26;20127;-64
2024/04/10 09:14:39;;;;;;;;;;;;;;;;;;5441825;26;19932;-65
2024/04/10 09:17:04;;;;;;;;;;;;;;;;;;5436057;26;20340;-65
2024/04/10 09:19:29;;;;;;;;;;;;;;;;;;5422361;26;20423;-64
2024/04/10 09:21:54;;;;;;;;;;;;;;;;;;5421824;26;19936;-65
2024/04/10 09:24:19;;;;;;;;;;;;;;;;;;5435357;26;20370;-65
2024/04/10 09:26:48;;;;;;;;;;;;;;;;;;5438714;26;20001;-66
2024/04/10 09:29:13;;;;;;;;;;;;;;;;;;5426620;26;19936;-64
2024/04/10 09:31:38;;;;;;;;;;;;;;;;;;5421659;26;19952;-64
2024/04/10 09:34:03;;;;;;;;;;;;;;;;;;5423856;26;19941;-65
2024/04/10 09:36:29;;;;;;;;;;;;;;;;;;5427902;26;19935;-67
2024/04/10 09:38:54;;;;;;;;;;;;;;;;;;5438460;26;19997;-64
2024/04/10 09:41:19;;;;;;;;;;;;;;;;;;5442356;26;20264;-65
2024/04/10 09:43:44;;;;;;;;;;;;;;;;;;5441924;26;19936;-66
2024/04/10 09:46:09;;;;;;;;;;;;;;;23.72;nan;101636.91;5441826;26;19929;-65
2024/04/10 09:48:34;;;;;;;;;;;;;;;;;;5441802;26;20338;-65
2024/04/10 09:50:59;;;;;;;;;;;;;;;;;;5440232;26;19970;-65
2024/04/10 09:53:24;;;;;;;;;;;;;;;;;;5427934;26;19928;-64
2024/04/10 09:55:50;;;;;;;;;;;;;;;24.50;nan;101643.28;5442313;26;20308;-65
2024/04/10 09:58:15;;;;;;;;;;;;;;;24.32;nan;101652.94;5440979;26;19928;-67
2024/04/10 10:00:40;;;;;;;;;;;;;;;;;;5430211;26;20298;-65
2024/04/10 10:03:06;;;;;;;;;;;;;;;24.56;nan;101654.06;5432715;26;19929;-65
2024/04/10 10:05:32;;;;;;;;;;;;;;;24.68;nan;101646.09;5426679;26;19929;-66
2024/04/10 10:08:12;;;;;;;;;;;;;;;24.99;nan;101657.94;5441274;26;19936;-65
2024/04/10 10:10:43;;;;;;;;;;;;;;;23.84;nan;101649.81;5430870;26;19961;-68
2024/04/10 10:13:08;;;;;;;;;;;;;;;22.74;nan;101633.19;5438923;26;19981;-65
2024/04/10 10:15:33;;;;;;;;;;;;;;;;;;5426898;26;20057;-65
2024/04/10 10:17:58;;;;;;;;;;;;;;;;;;5427158;26;19960;-67
2024/04/10 10:20:23;;;;;;;;;;;;;;;;;;5422697;26;19929;-64
2024/04/10 10:22:48;;;;;;;;;;;;;;;;;;5430467;26;19940;-65
2024/04/10 10:25:14;;;;;;;;;;;;;;;;;;5439758;26;19933;-64
2024/04/10 10:27:41;;;;;;;;;;;;;;;;;;5441899;26;19935;-66
2024/04/10 10:30:06;;;;;;;;;;;;;;;;;;5415003;26;19953;-64
2024/04/10 10:32:32;;;;;;;;;;;;;;;;;;5422317;26;19936;-64
2024/04/10 10:34:57;;;;;;;;;;;;;;;;;;5408961;26;19936;-66
2024/04/10 10:37:22;;;;;;;;;;;;;;;;;;5412767;26;19935;-64
2024/04/10 10:39:47;;;;;;;;;;;;;;;;;;5427424;26;19948;-64
2024/04/10 10:42:12;;;;;;;;;;;;;;;;;;5441053;26;20064;-66
2024/04/10 10:44:37;;;;;;;;;;;;;;;;;;5442466;26;20319;-65
2024/04/10 10:47:06;;;;;;;;;;;;;;;23.60;nan;101654.81;5412099;26;19998;-65
2024/04/10 10:49:31;;;;;;;;;;;;;;;25.42;nan;101668.84;5420358;26;20632;-66
2024/04/10 10:51:57;;;;;;;;;;;;;;;26.75;nan;101677.31;5412011;26;19929;-65
2024/04/10 10:54:22;;;;;;;;;;;;;;;27.97;nan;101675.88;5439756;26;19940;-65
2024/04/10 10:56:48;;;;;;;;;;;;;;;29.38;nan;101672.44;5439121;26;19934;-65
2024/04/10 10:59:14;;;;;;;;;;;;;;;29.45;nan;101694.06;5417887;26;19952;-65
2024/04/10 11:01:39;;;;;;;;;;;;;;;28.90;nan;101682.00;5431721;26;19969;-65
2024/04/10 11:04:08;;;;;;;;;;;;;;;27.04;nan;101663.91;5441290;26;19929;-65
2024/04/10 11:06:33;;;;;;;;;;;;;;;26.38;nan;101671.94;5434347;26;20435;-65
2024/04/10 11:08:58;;;;;;;;;;;;;;;;;;5408028;26;19929;-68
2024/04/10 11:11:24;;;;;;;;;;;;;;;26.54;nan;101658.84;5439195;26;19933;-65
2024/04/10 11:13:49;;;;;;;;;;;;;;;25.60;nan;101654.50;5427345;26;20372;-64
2024/04/10 11:16:25;;;;;;;;;;;;;;;24.31;nan;101626.09;5436232;26;20024;-65
2024/04/10 11:18:50;;;;;;;;;;;;;;;24.94;nan;101636.13;5432905;26;20230;-65
2024/04/10 11:21:15;;;;;;;;;;;;;;;;;;5428581;26;19935;-66
2024/04/10 11:23:40;;;;;;;;;;;;;;;22.88;nan;101610.59;5416774;26;20456;-65
2024/04/10 11:26:05;;;;;;;;;;;;;;;;;;5410936;26;19937;-64
2024/04/10 11:28:30;;;;;;;;;;;;;;;;;;5428707;26;20266;-65
2024/04/10 11:30:56;;;;;;;;;;;;;;;;;;5405620;26;19941;-66
2024/04/10 11:33:21;;;;;;;;;;;;;;;;;;5422480;26;20005;-67
2024/04/10 11:35:46;;;;;;;;;;;;;;;;;;5430902;26;19929;-65
2024/04/10 11:38:11;;;;;;;;;;;;;;;;;;5433300;26;20341;-64
2024/04/10 11:40:36;;;;;;;;;;;;;;;;;;5445340;26;19936;-66
2024/04/10 11:43:01;;;;;;;;;;;;;;;;;;5418567;26;19945;-64
2024/04/10 11:45:26;;;;;;;;;;;;;;;;;;5395551;26;19965;-65
2024/04/10 11:47:53;;;;;;;;;;;;;;;;;;5409195;26;19997;-67
2024/04/10 11:50:18;;;;;;;;;;;;;;;;;;5441958;26;19936;-65
2024/04/10 11:52:44;;;;;;;;;;;;;;;23.68;nan;101607.84;5430888;26;19928;-64
2024/04/10 11:55:09;;;;;;;;;;;;;;;;;;5444414;26;20265;-64
2024/04/10 11:57:35;;;;;;;;;;;;;;;22.26;nan;101634.97;5444850;26;20269;-65
2024/04/10 12:00:00;;;;;;;;;;;;;;;22.84;nan;101622.88;5445061;26;19928;-66
2024/04/10 12:02:26;;;;;;;;;;;;;;;22.70;nan;101648.97;5429242;26;20464;-64
2024/04/10 12:04:55;;;;;;;;;;;;;;;22.98;nan;101621.88;5429922;26;20067;-64
2024/04/10 12:07:20;;;;;;;;;;;;;;;22.43;nan;101626.53;5425437;26;19929;-67
2024/04/10 12:09:45;;;;;;;;;;;;;;;22.77;nan;101635.50;5399653;26;19934;-66
2024/04/10 12:12:11;;;;;;;;;;;;;;;22.01;nan;101633.81;5380686;26;19929;-65
2024/04/10 12:14:36;;;;;;;;;;;;;;;21.65;nan;101616.03;5417313;26;19936;-64
2024/04/10 12:17:01;;;;;;;;;;;;;;;21.12;nan;101624.53;5429847;26;20266;-66
2024/04/10 12:19:26;;;;;;;;;;;;;;;;;;5427372;26;19933;-67
2024/04/10 12:21:53;;;;;;;;;;;;;;;;;;5416415;26;19929;-64
2024/04/10 12:24:18;;;;;;;;;;;;;;;20.40;nan;101603.13;5426064;26;19940;-67
2024/04/10 12:26:43;;;;;;;;;;;;;;;;;;5429566;26;19928;-65
2024/04/10 12:29:08;;;;;;;;;;;;;;;;;;5417377;26;19961;-65
2024/04/10 12:31:33;;;;;;;;;;;;;;;;;;5421722;26;19928;-66
2024/04/10 12:33:58;;;;;;;;;;;;;;;;;;5416038;26;19948;-68
2024/04/10 12:39:08;;;;;;;;;;;;;;;;;;5420321;26;20273;-64
2024/04/10 12:41:34;;;;;;;;;;;;;;;;;;5421535;26;20193;-65
2024/04/10 12:43:59;;;;;;;;;;;;;;;;;;5423559;26;19929;-65
2024/04/10 12:46:27;;;;;;;;;;;;;;;;;;5427160;26;20328;-67
2024/04/10 12:48:52;;;;;;;;;;;;;;;;;;5429888;26;19929;-68
2024/04/10 12:51:17;;;;;;;;;;;;;;;;;;5410945;26;19933;-65
2024/04/10 12:53:43;;;;;;;;;;;;;;;;;;5423221;26;19998;-65
2024/04/10 12:56:09;;;;;;;;;;;;;;;;;;5437647;26;19935;-65
2024/04/10 12:58:34;;;;;;;;;;;;;;;;;;5444391;26;20015;-67
2024/04/10 13:00:59;;;;;;;;;;;;;;;;;;5443866;26;19929;-67
2024/04/10 13:03:24;;;;;;;;;;;;;;;;;;5444309;26;20385;-67
2024/04/10 13:05:49;;;;;;;;;;;;;;;;;;5443881;26;19961;-64
2024/04/10 13:08:14;;;;;;;;;;;;;;;;;;5421308;26;19929;-67
2024/04/10 13:10:39;;;;;;;;;;;;;;;;;;5437079;26;19928;-64
2024/04/10 13:13:05;;;;;;;;;;;;;;;;;;5423300;26;20017;-65
2024/04/10 13:15:30;;;;;;;;;;;;;;;;;;5442347;26;20361;-65
2024/04/10 13:17:55;;;;;;;;;;;;;;;;;;5429400;26;19932;-67
2024/04/10 13:20:20;;;;;;;;;;;;;;;;;;5433838;26;19936;-66
2024/04/10 13:22:45;;;;;;;;;;;;;;;;;;5412228;26;19935;-65
2024/04/10 13:25:10;;;;;;;;;;;;;;;;;;5423038;26;20366;-65
2024/04/10 13:27:37;;;;;;;;;;;;;;;;;;5429030;26;19997;-65
2024/04/10 13:30:02;;;;;;;;;;;;;;;;;;5428611;26;19940;-66
2024/04/10 13:32:28;;;;;;;;;;;;;;;;;;5428459;26;21896;-65
2024/04/10 13:34:53;;;;;;;;;;;;;;;;;;5443520;26;19939;-64
2024/04/10 13:37:18;;;;;;;;;;;;;;;;;;5411139;26;20370;-67
2024/04/10 13:39:43;;;;;;;;;;;;;;;;;;5426906;26;19937;-67
2024/04/10 13:42:08;;;;;;;;;;;;;;;;;;5437430;26;19940;-65
2024/04/10 13:44:33;;;;;;;;;;;;;;;;;;5443114;26;20453;-66
2024/04/10 13:46:59;;;;;;;;;;;;;;;;;;5428679;26;19960;-65
2024/04/10 13:49:24;;;;;;;;;;;;;;;;;;5442889;26;19928;-66
2024/04/10 13:51:49;;;;;;;;;;;;;;;;;;5443477;26;19948;-64
2024/04/10 13:54:14;;;;;;;;;;;;;;;;;;5455646;26;19937;-66
2024/04/10 13:56:39;;;;;;;;;;;;;;;;;;5428615;26;20775;-65
2024/04/10 13:59:04;;;;;;;;;;;;;;;;;;5431186;26;19935;-67
2024/04/10 14:01:30;;;;;;;;;;;;;;;;;;5421566;26;19932;-65
2024/04/10 14:03:55;;;;;;;;;;;;;;;;;;5434068;26;19940;-66
2024/04/10 14:06:20;;;;;;;;;;;;;;;;;;5442981;26;19929;-68
2024/04/10 14:08:45;;;;;;;;;;;;;;;;;;5435411;26;19940;-68
2024/04/10 14:11:10;;;;;;;;;;;;;;;;;;5437456;26;19928;-65
2024/04/10 14:13:37;;;;;;;;;;;;;;;;;;5439620;26;19976;-66
2024/04/10 14:16:02;;;;;;;;;;;;;;;;;;5442890;26;19960;-65
2024/04/10 14:18:27;;;;;;;;;;;;;;;;;;5428666;26;19997;-64
2024/04/10 14:20:52;;;;;;;;;;;;;;;;;;5430996;26;19996;-67
2024/04/10 14:23:17;;;;;;;;;;;;;;;;;;5438020;26;19940;-65
2024/04/10 14:25:43;;;;;;;;;;;;;;;;;;5427267;26;20364;-65
2024/04/10 14:28:08;;;;;;;;;;;;;;;;;;5442639;26;19986;-65
2024/04/10 14:30:34;;;;;;;;;;;;;;;;;;5416726;26;19936;-68
2024/04/10 14:33:00;;;;;;;;;;;;;;;;;;5425110;26;19948;-67
2024/04/10 14:35:25;;;;;;;;;;;;;;;;;;5432439;26;19936;-67
2024/04/10 14:37:50;;;;;;;;;;;;;;;;;;5419596;26;19936;-65
2024/04/10 14:40:15;;;;;;;;;;;;;;;;;;5418407;26;19997;-65
2024/04/10 14:42:40;;;;;;;;;;;;;;;;;;5426395;26;20342;-66
2024/04/10 14:45:10;;;;;;;;;;;;;;;;;;5434282;26;19935;-65
2024/04/10 14:47:35;;;;;;;;;;;;;;;;;;5442384;26;19928;-64
2024/04/10 14:50:00;;;;;;;;;;;;;;;;;;5436303;26;19929;-65
2024/04/10 14:52:25;;;;;;;;;;;;;;;;;;5420744;26;19983;-65
2024/04/10 14:54:50;;;;;;;;;;;;;;;;;;5442460;26;19929;-64
2024/04/10 14:57:15;;;;;;;;;;;;;;;;;;5438069;26;19947;-67
2024/04/10 14:59:40;;;;;;;;;;;;;;;;;;5422329;26;19928;-68
2024/04/10 15:02:05;;;;;;;;;;;;;;;;;;5433783;26;19932;-64
2024/04/10 15:04:31;;;;;;;;;;;;;;;;;;5428529;26;19935;-67
2024/04/10 15:06:56;;;;;;;;;;;;;;;;;;5442285;26;19932;-65
2024/04/10 15:09:21;;;;;;;;;;;;;;;;;;5437363;26;19936;-68
2024/04/10 15:11:46;;;;;;;;;;;;;;;;;;5419074;26;20372;-63
2024/04/10 15:14:11;;;;;;;;;;;;;;;;;;5423598;26;19940;-64
2024/04/10 15:16:36;;;;;;;;;;;;;;;;;;5434011;26;19936;-63
2024/04/10 15:19:01;;;;;;;;;;;;;;;;;;5446405;26;19956;-67
2024/04/10 15:21:26;;;;;;;;;;;;;;;;;;5433951;26;19970;-67
2024/04/10 15:23:51;;;;;;;;;;;;;;;;;;5433874;26;19929;-67
2024/04/10 15:26:17;;;;;;;;;;;;;;;;;;5473195;26;19933;-66
2024/04/10 15:28:42;;;;;;;;;;;;;;;;;;5436589;26;20505;-65
2024/04/10 15:31:07;;;;;;;;;;;;;;;;;;5430871;26;20362;-64
2024/04/10 15:33:32;;;;;;;;;;;;;;;;;;5427093;26;19928;-66
2024/04/10 15:35:57;;;;;;;;;;;;;;;;;;5419722;26;19929;-65
2024/04/10 15:38:23;;;;;;;;;;;;;;;;;;5427742;26;19940;-68
2024/04/10 15:40:48;;;;;;;;;;;;;;;;;;5420584;26;19929;-64
2024/04/10 15:43:13;;;;;;;;;;;;;;;;;;5419608;26;20251;-66
2024/04/10 15:45:38;;;;;;;;;;;;;;;;;;5415084;26;19940;-65
2024/04/10 15:48:03;;;;;;;;;;;;;;;;;;5424944;26;20461;-67
2024/04/10 15:50:28;;;;;;;;;;;;;;;;;;5422887;26;20366;-66
2024/04/10 15:52:53;;;;;;;;;;;;;;;;;;5473812;26;20390;-67
2024/04/10 15:55:19;;;;;;;;;;;;;;;;;;5444575;26;19974;-67
2024/04/10 15:57:44;;;;;;;;;;;;;;;;;;5445403;26;19929;-67
2024/04/10 16:00:09;;;;;;;;;;;;;;;;;;5429176;26;19928;-65